Time;durP1;ratioP1;P1;durP2;ratioP2;P2;SDS_P1;SDS_P2;PMS_P1;PMS_P2;Temp;Humidity;BMP_temperature;BMP_pressure;BME280_temperature;BME280_humidity;BME280_pressure;Samples;Min_cycle;Max_cycle;Signal;HPM_P1;HPM_P2
2023/06/15 00:00:09;;;;;;;15.10;5.20;;;19.40;99.90;;;;;;6306501;22;20030;-83
2023/06/15 00:02:35;;;;;;;11.95;5.38;;;19.40;99.90;;;;;;6306597;22;20003;-84
2023/06/15 00:05:01;;;;;;;11.10;4.70;;;19.30;99.90;;;;;;6306344;22;20086;-82
2023/06/15 00:07:26;;;;;;;9.38;5.47;;;19.30;99.90;;;;;;6306336;22;20000;-84
2023/06/15 00:09:52;;;;;;;13.68;5.90;;;19.30;99.90;;;;;;6306677;22;20007;-84
2023/06/15 00:12:18;;;;;;;9.18;4.90;;;19.30;99.90;;;;;;6306113;22;20076;-84
2023/06/15 00:14:44;;;;;;;10.00;5.00;;;19.30;99.90;;;;;;6306643;22;20003;-85
2023/06/15 00:17:11;;;;;;;9.82;5.38;;;19.30;99.90;;;;;;6332514;22;19995;-84
2023/06/15 00:19:37;;;;;;;10.52;5.10;;;19.30;99.90;;;;;;6307995;22;20003;-84
2023/06/15 00:22:04;;;;;;;14.35;4.82;;;19.20;99.90;;;;;;6306252;22;20011;-84
2023/06/15 00:24:30;;;;;;;9.07;5.07;;;19.20;99.90;;;;;;6306656;22;20007;-84
2023/06/15 00:26:55;;;;;;;12.73;5.85;;;19.20;99.90;;;;;;6306300;22;20117;-84
2023/06/15 00:29:21;;;;;;;12.38;6.18;;;19.20;99.90;;;;;;6308271;22;19995;-84
2023/06/15 00:31:47;;;;;;;15.05;7.03;;;19.20;99.90;;;;;;6307857;22;20528;-84
2023/06/15 00:34:13;;;;;;;15.10;7.32;;;19.20;99.90;;;;;;6305914;22;19999;-84
2023/06/15 00:36:39;;;;;;;17.73;7.68;;;19.20;99.90;;;;;;6306348;22;19995;-84
2023/06/15 00:39:05;;;;;;;18.88;8.45;;;19.10;99.90;;;;;;6306546;22;20006;-84
2023/06/15 00:41:40;;;;;;;20.23;7.75;;;19.10;99.90;;;;;;6307367;22;20003;-84
2023/06/15 00:44:06;;;;;;;15.52;7.43;;;19.10;99.90;;;;;;6306276;22;20004;-84
2023/06/15 00:46:32;;;;;;;13.95;7.03;;;19.10;99.90;;;;;;6306114;22;19999;-84
2023/06/15 00:48:58;;;;;;;13.75;7.18;;;19.10;99.90;;;;;;6305953;22;20014;-84
2023/06/15 00:51:23;;;;;;;12.98;6.82;;;19.10;99.90;;;;;;6306516;22;20007;-84
2023/06/15 00:53:50;;;;;;;14.45;6.90;;;19.10;99.90;;;;;;6306068;22;20029;-84
2023/06/15 00:56:17;;;;;;;10.73;6.22;;;19.10;99.90;;;;;;6306241;22;20069;-84
2023/06/15 00:58:44;;;;;;;11.20;6.35;;;19.10;99.90;;;;;;6306412;22;20090;-84
2023/06/15 01:01:10;;;;;;;12.90;6.50;;;19.10;99.90;;;;;;6305440;22;20007;-84
2023/06/15 01:03:36;;;;;;;12.05;6.28;;;19.10;99.90;;;;;;6306331;22;19999;-84
2023/06/15 01:06:12;;;;;;;11.75;6.90;;;19.10;99.90;;;;;;6308007;22;20035;-84
2023/06/15 01:08:40;;;;;;;14.50;6.43;;;19.00;99.90;;;;;;6306052;22;19999;-83
2023/06/15 01:11:06;;;;;;;16.77;6.53;;;19.00;99.90;;;;;;6306275;22;20004;-84
2023/06/15 01:13:33;;;;;;;10.18;6.45;;;19.10;99.90;;;;;;6306436;22;19999;-84
2023/06/15 01:16:01;;;;;;;14.25;6.93;;;19.00;99.90;;;;;;6307943;22;20003;-84
2023/06/15 01:18:29;;;;;;;11.60;6.65;;;19.00;99.90;;;;;;6309610;22;20085;-83
2023/06/15 01:20:56;;;;;;;12.43;6.22;;;19.00;99.90;;;;;;6309171;22;20035;-84
2023/06/15 01:23:27;;;;;;;12.82;6.95;;;19.00;99.90;;;;;;6308924;22;20003;-84
2023/06/15 01:26:03;;;;;;;13.55;6.22;;;19.00;99.90;;;;;;6308317;22;19999;-84
2023/06/15 01:28:30;;;;;;;10.45;6.20;;;18.90;99.90;;;;;;6307771;22;20007;-84
2023/06/15 01:30:57;;;;;;;17.00;6.78;;;18.90;99.90;;;;;;6307428;22;19999;-84
2023/06/15 01:33:23;;;;;;;13.82;7.20;;;19.00;99.90;;;;;;6307561;22;20030;-84
2023/06/15 01:35:49;;;;;;;13.55;6.13;;;19.00;99.90;;;;;;6308735;22;20003;-84
2023/06/15 01:38:19;;;;;;;10.75;5.57;;;19.00;99.90;;;;;;6308075;22;19995;-83
2023/06/15 01:40:48;;;;;;;15.82;5.85;;;18.90;99.90;;;;;;6309086;22;20003;-84
2023/06/15 01:43:18;;;;;;;12.35;5.85;;;18.90;99.90;;;;;;6307334;22;20003;-83
2023/06/15 01:45:45;;;;;;;9.45;6.00;;;18.90;99.90;;;;;;6307700;22;19999;-84
2023/06/15 01:48:12;;;;;;;10.20;5.60;;;18.90;99.90;;;;;;6307341;22;20293;-84
2023/06/15 01:50:40;;;;;;;9.07;5.28;;;18.90;99.90;;;;;;6307242;22;20029;-84
2023/06/15 01:53:06;;;;;;;10.80;5.50;;;18.80;99.90;;;;;;6307599;22;20086;-83
2023/06/15 01:55:32;;;;;;;11.75;5.28;;;18.80;99.90;;;;;;6308484;22;20027;-84
2023/06/15 01:57:58;;;;;;;8.57;5.40;;;18.80;99.90;;;;;;6308592;22;20019;-84
2023/06/15 02:00:25;;;;;;;9.88;5.45;;;18.80;99.90;;;;;;6308340;22;20007;-84
2023/06/15 02:02:51;;;;;;;13.13;6.07;;;18.80;99.90;;;;;;6308587;22;20003;-84
2023/06/15 02:05:17;;;;;;;12.00;5.90;;;18.80;99.90;;;;;;6307216;22;20297;-84
2023/06/15 02:07:44;;;;;;;11.38;5.68;;;18.80;99.90;;;;;;6308843;22;20018;-84
2023/06/15 02:10:10;;;;;;;10.45;5.32;;;18.70;99.90;;;;;;6307375;22;20507;-83
2023/06/15 02:12:36;;;;;;;11.98;5.70;;;18.70;99.90;;;;;;6308266;22;20319;-84
2023/06/15 02:15:03;;;;;;;12.07;5.25;;;18.70;99.90;;;;;;6307555;22;20000;-84
2023/06/15 02:17:30;;;;;;;10.20;5.68;;;18.70;99.90;;;;;;6309275;22;20002;-83
2023/06/15 02:19:59;;;;;;;10.85;6.07;;;18.70;99.90;;;;;;6308071;22;19992;-84
2023/06/15 02:22:25;;;;;;;12.90;5.80;;;18.70;99.90;;;;;;6309195;22;20086;-84
2023/06/15 02:24:51;;;;;;;10.98;5.13;;;18.70;99.90;;;;;;6307128;22;20340;-84
2023/06/15 02:27:16;;;;;;;11.75;5.05;;;18.70;99.90;;;;;;6307506;22;20029;-84
2023/06/15 02:29:42;;;;;;;8.55;4.45;;;18.80;99.90;;;;;;6307579;22;20004;-84
2023/06/15 02:32:11;;;;;;;9.60;4.85;;;18.70;99.90;;;;;;6307031;22;20073;-84
2023/06/15 02:34:36;;;;;;;7.47;4.63;;;18.70;99.90;;;;;;6309175;22;20316;-84
2023/06/15 02:37:02;;;;;;;11.52;5.80;;;18.70;99.90;;;;;;6307481;22;20006;-84
2023/06/15 02:39:29;;;;;;;10.05;5.22;;;18.70;99.90;;;;;;6307060;22;20003;-84
2023/06/15 02:41:54;;;;;;;9.40;4.75;;;18.70;99.90;;;;;;6307299;22;20056;-84
2023/06/15 02:44:21;;;;;;;13.77;5.30;;;18.70;99.90;;;;;;6307196;22;19999;-84
2023/06/15 02:46:47;;;;;;;7.40;4.50;;;18.70;99.90;;;;;;6308530;22;20078;-84
2023/06/15 02:49:13;;;;;;;10.73;5.07;;;18.70;99.90;;;;;;6307283;22;20050;-84
2023/06/15 02:51:39;;;;;;;9.63;4.93;;;18.60;99.90;;;;;;6306829;22;20013;-84
2023/06/15 02:54:06;;;;;;;9.60;5.00;;;18.60;99.90;;;;;;6306549;22;20003;-84
2023/06/15 02:56:34;;;;;;;13.90;4.97;;;18.60;99.90;;;;;;6306554;22;20018;-83
2023/06/15 02:59:01;;;;;;;9.00;4.57;;;18.50;99.90;;;;;;6306735;22;20324;-84
2023/06/15 03:01:36;;;;;;;8.65;4.53;;;18.50;99.90;;;;;;6307935;22;20086;-83
2023/06/15 03:04:04;;;;;;;12.32;4.80;;;18.50;99.90;;;;;;6306747;22;20010;-83
2023/06/15 03:06:33;;;;;;;8.98;4.78;;;18.50;99.90;;;;;;6306845;22;20052;-83
2023/06/15 03:08:59;;;;;;;9.07;4.80;;;18.40;99.90;;;;;;6306359;22;20386;-83
2023/06/15 03:11:26;;;;;;;8.05;4.10;;;18.40;99.90;;;;;;6306635;22;20327;-83
2023/06/15 03:13:53;;;;;;;10.07;4.30;;;18.40;99.90;;;;;;6307949;22;19999;-83
2023/06/15 03:16:20;;;;;;;13.20;4.00;;;18.40;99.90;;;;;;6306747;22;20003;-84
2023/06/15 03:18:47;;;;;;;11.25;4.30;;;18.40;99.90;;;;;;6306705;22;20000;-83
2023/06/15 03:21:14;;;;;;;6.43;3.50;;;18.40;99.90;;;;;;6306300;22;20004;-83
2023/06/15 03:23:42;;;;;;;6.70;4.05;;;18.30;99.90;;;;;;6306304;22;20491;-83
2023/06/15 03:26:08;;;;;;;8.27;3.92;;;18.40;99.90;;;;;;6306634;22;20004;-83
2023/06/15 03:28:37;;;;;;;6.22;3.88;;;18.40;99.90;;;;;;6307466;22;19999;-83
2023/06/15 03:31:05;;;;;;;7.20;3.92;;;18.40;99.90;;;;;;6308033;22;20003;-84
2023/06/15 03:33:31;;;;;;;9.57;4.07;;;18.50;99.90;;;;;;6306793;22;20100;-84
2023/06/15 03:35:57;;;;;;;5.90;3.58;;;18.40;99.90;;;;;;6306189;22;20014;-84
2023/06/15 03:38:23;;;;;;;7.00;3.75;;;18.40;99.90;;;;;;6306284;22;20412;-84
2023/06/15 03:40:49;;;;;;;9.57;3.92;;;18.40;99.90;;;;;;6306372;22;20035;-84
2023/06/15 03:43:16;;;;;;;6.97;3.67;;;18.40;99.90;;;;;;6305987;22;20054;-83
2023/06/15 03:45:42;;;;;;;7.15;3.58;;;18.40;99.90;;;;;;6305924;22;20305;-83
2023/06/15 03:48:08;;;;;;;8.68;3.83;;;18.50;99.90;;;;;;6306536;22;20324;-83
2023/06/15 03:50:34;;;;;;;8.88;3.92;;;18.50;99.90;;;;;;6307168;22;19999;-83
2023/06/15 03:53:01;;;;;;;8.25;3.97;;;18.50;99.90;;;;;;6306319;22;19999;-83
2023/06/15 03:55:27;;;;;;;6.60;3.63;;;18.50;99.90;;;;;;6308010;22;20430;-82
2023/06/15 03:57:52;;;;;;;7.95;4.40;;;18.60;99.90;;;;;;6306281;22;20011;-83
2023/06/15 04:00:18;;;;;;;8.68;3.85;;;18.60;99.90;;;;;;6306633;22;20438;-82
2023/06/15 04:02:45;;;;;;;9.07;4.53;;;18.60;99.90;;;;;;6306272;22;20007;-83
2023/06/15 04:05:10;;;;;;;9.90;4.38;;;18.60;99.90;;;;;;6306387;22;20007;-83
2023/06/15 04:07:36;;;;;;;9.18;4.18;;;18.60;99.90;;;;;;6306297;22;19999;-83
2023/06/15 04:10:04;;;;;;;6.78;4.32;;;18.60;99.90;;;;;;6304967;22;20053;-83
2023/06/15 04:12:30;;;;;;;11.75;4.13;;;18.60;99.90;;;;;;6305762;22;20003;-83
2023/06/15 04:14:56;;;;;;;10.23;4.03;;;18.60;99.90;;;;;;6306321;22;20004;-83
2023/06/15 04:17:21;;;;;;;6.43;3.65;;;18.70;99.90;;;;;;6305491;22;20082;-83
2023/06/15 04:19:47;;;;;;;8.63;3.97;;;18.70;99.90;;;;;;6305616;22;20000;-83
2023/06/15 04:22:13;;;;;;;7.43;4.00;;;18.70;99.90;;;;;;6307977;22;20007;-82
2023/06/15 04:24:39;;;;;;;11.77;3.85;;;18.70;99.90;;;;;;6305560;22;20514;-83
2023/06/15 04:27:05;;;;;;;9.00;3.80;;;18.70;99.90;;;;;;6305880;22;19995;-83
2023/06/15 04:29:31;;;;;;;9.77;3.55;;;18.70;99.90;;;;;;6306229;22;20496;-82
2023/06/15 04:31:57;;;;;;;7.63;3.88;;;18.70;99.90;;;;;;6307084;22;19999;-83
2023/06/15 04:34:27;;;;;;;9.48;3.90;;;18.70;99.90;;;;;;6306429;22;20006;-83
2023/06/15 04:36:53;;;;;;;8.45;3.90;;;18.70;99.90;;;;;;6306245;22;20423;-83
2023/06/15 04:39:27;;;;;;;10.25;4.55;;;18.70;99.90;;;;;;6305579;22;20003;-82
2023/06/15 04:41:57;;;;;;;6.20;3.75;;;18.70;99.90;;;;;;6307738;22;20055;-83
2023/06/15 04:44:23;;;;;;;6.57;3.63;;;18.70;99.90;;;;;;6307985;22;19999;-83
2023/06/15 04:46:48;;;;;;;9.00;3.60;;;18.70;99.90;;;;;;6307154;22;20002;-83
2023/06/15 04:49:14;;;;;;;6.90;3.60;;;18.60;99.90;;;;;;6308711;22;20006;-83
2023/06/15 04:51:40;;;;;;;8.27;3.90;;;18.60;99.90;;;;;;6308146;22;20082;-82
2023/06/15 04:54:06;;;;;;;7.30;3.65;;;18.70;99.90;;;;;;6308662;22;19999;-83
2023/06/15 04:56:32;;;;;;;6.18;3.25;;;18.70;99.90;;;;;;6308017;22;20011;-82
2023/06/15 04:58:57;;;;;;;8.02;3.55;;;18.80;99.90;;;;;;6308019;22;20086;-83
2023/06/15 05:01:23;;;;;;;7.47;4.15;;;18.80;99.90;;;;;;6309616;22;19999;-83
2023/06/15 05:03:49;;;;;;;8.07;4.00;;;18.90;99.90;;;;;;6308343;22;19999;-83
2023/06/15 05:06:15;;;;;;;19.05;3.80;;;18.90;99.90;;;;;;6308067;22;20003;-82
2023/06/15 05:08:41;;;;;;;8.23;4.13;;;19.00;99.90;;;;;;6308335;22;20301;-83
2023/06/15 05:11:07;;;;;;;10.50;4.30;;;19.00;99.90;;;;;;6308464;22;20056;-83
2023/06/15 05:13:33;;;;;;;7.78;4.45;;;19.00;99.90;;;;;;6307910;22;19999;-83
2023/06/15 05:15:59;;;;;;;11.73;4.43;;;19.00;99.90;;;;;;6309389;22;20048;-83
2023/06/15 05:18:25;;;;;;;10.00;3.78;;;19.00;99.90;;;;;;6308329;22;20446;-83
2023/06/15 05:20:50;;;;;;;6.25;4.20;;;19.00;99.90;;;;;;6307762;22;20015;-83
2023/06/15 05:23:18;;;;;;;10.05;4.20;;;19.00;99.90;;;;;;6310173;22;20004;-83
2023/06/15 05:25:44;;;;;;;8.68;4.38;;;19.00;99.90;;;;;;6308312;22;20000;-83
2023/06/15 05:28:10;;;;;;;10.80;4.10;;;19.10;99.90;;;;;;6308933;22;19999;-83
2023/06/15 05:30:36;;;;;;;9.07;3.72;;;19.10;99.90;;;;;;6309837;22;20120;-83
2023/06/15 05:33:02;;;;;;;9.57;3.90;;;19.10;99.90;;;;;;6309838;22;19991;-83
2023/06/15 05:35:28;;;;;;;7.63;3.80;;;19.20;99.90;;;;;;6307854;22;20109;-83
2023/06/15 05:37:54;;;;;;;8.30;3.65;;;19.20;99.90;;;;;;6308852;22;20022;-82
2023/06/15 05:40:19;;;;;;;8.35;3.40;;;19.30;99.90;;;;;;6305770;22;20006;-83
2023/06/15 05:42:45;;;;;;;6.50;3.40;;;19.30;99.90;;;;;;6308221;22;20418;-83
2023/06/15 05:45:11;;;;;;;7.28;3.13;;;19.30;99.90;;;;;;6308127;22;20091;-83
2023/06/15 05:47:37;;;;;;;9.05;3.40;;;19.30;99.90;;;;;;6305680;22;20084;-82
2023/06/15 05:50:03;;;;;;;7.15;3.80;;;19.40;99.90;;;;;;6309900;22;20074;-83
2023/06/15 05:52:28;;;;;;;7.80;3.60;;;19.30;99.90;;;;;;6307465;22;20008;-83
2023/06/15 05:54:54;;;;;;;7.93;4.15;;;19.40;99.90;;;;;;6309115;22;20000;-82
2023/06/15 05:57:20;;;;;;;8.35;4.50;;;19.40;99.90;;;;;;6307588;22;20019;-83
2023/06/15 05:59:49;;;;;;;6.57;3.60;;;19.50;99.90;;;;;;6307590;22;19999;-83
2023/06/15 06:02:15;;;;;;;9.85;4.18;;;19.50;99.90;;;;;;6307366;22;20034;-83
2023/06/15 06:04:41;;;;;;;6.22;3.95;;;19.50;99.90;;;;;;6307881;22;20006;-83
2023/06/15 06:07:07;;;;;;;9.45;4.10;;;19.60;99.90;;;;;;6307816;22;20064;-83
2023/06/15 06:09:33;;;;;;;7.75;3.70;;;19.60;99.90;;;;;;6307488;22;20052;-82
2023/06/15 06:12:00;;;;;;;5.68;3.70;;;19.60;99.90;;;;;;6309385;22;20529;-83
2023/06/15 06:14:27;;;;;;;6.47;3.67;;;19.50;99.90;;;;;;6307780;22;20320;-83
2023/06/15 06:16:54;;;;;;;8.57;4.05;;;19.50;99.90;;;;;;6307421;22;20011;-83
2023/06/15 06:19:20;;;;;;;7.78;5.07;;;19.50;99.90;;;;;;6309173;22;19995;-83
2023/06/15 06:21:46;;;;;;;9.32;4.40;;;19.50;99.90;;;;;;6307566;22;20036;-83
2023/06/15 06:24:12;;;;;;;8.00;4.55;;;19.40;99.90;;;;;;6308922;22;20000;-83
2023/06/15 06:26:38;;;;;;;6.38;3.88;;;19.40;99.90;;;;;;6309339;22;20459;-83
2023/06/15 06:29:04;;;;;;;11.40;4.10;;;19.40;99.90;;;;;;6307371;22;20327;-83
2023/06/15 06:31:29;;;;;;;9.38;4.30;;;19.40;99.90;;;;;;6307141;22;20007;-82
2023/06/15 06:33:56;;;;;;;11.07;4.18;;;19.40;99.90;;;;;;6309232;22;19991;-82
2023/06/15 06:36:22;;;;;;;8.32;4.15;;;19.40;99.90;;;;;;6307580;22;19999;-82
2023/06/15 06:38:48;;;;;;;9.07;4.57;;;19.40;99.90;;;;;;6308940;22;20049;-82
2023/06/15 06:41:14;;;;;;;11.93;3.65;;;19.50;99.90;;;;;;6308871;22;20003;-82
2023/06/15 06:43:40;;;;;;;7.40;3.55;;;19.50;99.90;;;;;;6308368;22;20411;-82
2023/06/15 06:46:06;;;;;;;10.18;4.60;;;19.50;99.90;;;;;;6307325;22;20133;-82
2023/06/15 06:48:32;;;;;;;12.85;4.47;;;19.50;99.90;;;;;;6307462;22;19995;-82
2023/06/15 06:50:57;;;;;;;17.67;4.60;;;19.50;99.90;;;;;;6308466;22;20408;-82
2023/06/15 06:53:23;;;;;;;9.70;3.97;;;19.60;99.90;;;;;;6307118;22;20045;-82
2023/06/15 06:55:50;;;;;;;9.23;4.40;;;19.60;99.90;;;;;;6308485;22;20011;-82
2023/06/15 06:58:16;;;;;;;9.88;4.15;;;19.60;99.90;;;;;;6306577;22;20007;-82
2023/06/15 07:00:42;;;;;;;8.15;4.35;;;19.50;99.90;;;;;;6307031;22;20463;-82
2023/06/15 07:03:08;;;;;;;9.68;4.63;;;19.60;99.90;;;;;;6307325;22;20424;-82
2023/06/15 07:05:33;;;;;;;8.27;4.60;;;19.60;99.90;;;;;;6308568;22;20003;-82
2023/06/15 07:07:59;;;;;;;10.93;4.43;;;19.60;99.90;;;;;;6308525;22;19995;-83
2023/06/15 07:10:25;;;;;;;9.18;4.78;;;19.50;99.90;;;;;;6307180;22;20415;-82
2023/06/15 07:12:55;;;;;;;9.85;4.90;;;19.50;99.90;;;;;;6306370;22;20006;-82
2023/06/15 07:15:21;;;;;;;12.18;4.45;;;19.50;99.90;;;;;;6307173;22;19999;-82
2023/06/15 07:17:47;;;;;;;10.23;4.25;;;19.50;99.90;;;;;;6308644;22;20006;-84
2023/06/15 07:20:13;;;;;;;10.50;4.55;;;19.60;99.90;;;;;;6306250;22;19999;-83
2023/06/15 07:22:39;;;;;;;7.97;4.30;;;19.60;99.90;;;;;;6307196;22;20011;-82
2023/06/15 07:25:05;;;;;;;11.43;5.03;;;19.60;99.90;;;;;;6308910;22;20391;-84
2023/06/15 07:27:31;;;;;;;13.60;4.68;;;19.60;99.90;;;;;;6308366;22;19995;-83
2023/06/15 07:29:57;;;;;;;9.77;5.25;;;19.60;99.90;;;;;;6308641;22;20404;-84
2023/06/15 07:32:23;;;;;;;9.13;4.32;;;19.60;99.90;;;;;;6306988;22;20009;-83
2023/06/15 07:34:48;;;;;;;8.98;4.75;;;19.60;99.90;;;;;;6306600;22;20097;-84
2023/06/15 07:37:14;;;;;;;8.05;5.03;;;19.70;99.90;;;;;;6306963;22;20408;-83
2023/06/15 07:39:40;;;;;;;8.98;4.85;;;19.70;99.90;;;;;;6308029;22;20002;-83
2023/06/15 07:42:07;;;;;;;12.40;6.30;;;19.80;99.90;;;;;;6306807;22;20007;-83
2023/06/15 07:44:32;;;;;;;14.73;6.07;;;19.80;99.90;;;;;;6306952;22;20006;-83
2023/06/15 07:46:58;;;;;;;15.65;6.35;;;19.80;99.90;;;;;;6308146;22;19999;-82
2023/06/15 07:49:24;;;;;;;11.68;6.85;;;19.70;99.90;;;;;;6306871;22;20022;-83
2023/06/15 07:51:50;;;;;;;12.73;6.78;;;19.80;99.90;;;;;;6308086;22;19995;-83
2023/06/15 07:54:16;;;;;;;14.52;6.25;;;19.70;99.90;;;;;;6306496;22;20327;-83
2023/06/15 07:56:44;;;;;;;13.30;6.20;;;19.70;99.90;;;;;;6306653;22;20087;-82
2023/06/15 07:59:10;;;;;;;21.65;6.95;;;19.70;99.90;;;;;;6306479;22;19999;-82
2023/06/15 08:01:35;;;;;;;10.00;5.65;;;19.70;99.90;;;;;;6305769;22;20060;-82
2023/06/15 08:04:02;;;;;;;11.50;5.82;;;19.70;99.90;;;;;;6306733;22;20011;-82
2023/06/15 08:06:28;;;;;;;14.10;7.40;;;19.80;99.90;;;;;;6306719;22;19996;-82
2023/06/15 08:08:53;;;;;;;12.13;6.15;;;19.80;99.90;;;;;;6307544;22;20006;-82
2023/06/15 08:11:19;;;;;;;12.02;6.47;;;19.70;99.90;;;;;;6308048;22;20006;-82
2023/06/15 08:13:45;;;;;;;13.43;6.85;;;19.70;99.90;;;;;;6306671;22;20003;-81
2023/06/15 08:16:11;;;;;;;11.13;5.75;;;19.60;99.90;;;;;;6307960;22;19995;-82
2023/06/15 08:18:37;;;;;;;12.85;5.57;;;19.60;99.90;;;;;;6306581;22;20026;-82
2023/06/15 08:21:03;;;;;;;10.95;5.68;;;19.60;99.90;;;;;;6306549;22;20014;-81
2023/06/15 08:23:29;;;;;;;11.10;5.38;;;19.60;99.90;;;;;;6307460;22;20003;-81
2023/06/15 08:25:55;;;;;;;9.80;5.65;;;19.60;99.90;;;;;;6311688;22;20002;-82
2023/06/15 08:28:21;;;;;;;10.90;5.72;;;19.70;99.90;;;;;;6310126;22;19999;-81
2023/06/15 08:30:47;;;;;;;11.40;5.85;;;19.70;99.90;;;;;;6311100;22;19995;-81
2023/06/15 08:33:13;;;;;;;10.45;5.13;;;19.70;99.90;;;;;;6310113;22;20044;-81
2023/06/15 08:35:39;;;;;;;9.55;5.20;;;19.60;99.90;;;;;;6309364;22;20027;-81
2023/06/15 08:38:05;;;;;;;10.77;5.10;;;19.60;99.90;;;;;;6311650;22;20023;-81
2023/06/15 08:40:30;;;;;;;15.25;5.80;;;19.60;99.90;;;;;;6309977;22;20023;-80
2023/06/15 08:42:58;;;;;;;8.93;5.07;;;19.60;99.90;;;;;;6311136;22;20011;-81
2023/06/15 08:45:28;;;;;;;7.82;4.95;;;19.50;99.90;;;;;;6311207;22;19996;-81
2023/06/15 08:47:57;;;;;;;12.02;5.93;;;19.50;99.90;;;;;;6309998;22;19999;-81
2023/06/15 08:50:23;;;;;;;12.15;6.20;;;19.60;99.90;;;;;;6311276;22;19996;-80
2023/06/15 08:52:50;;;;;;;12.43;5.70;;;19.50;99.90;;;;;;6309996;22;20007;-80
2023/06/15 08:55:17;;;;;;;12.48;5.75;;;19.60;99.90;;;;;;6311571;22;19992;-80
2023/06/15 08:57:43;;;;;;;13.40;6.10;;;19.70;99.90;;;;;;6311483;22;20007;-80
2023/06/15 09:00:10;;;;;;;10.10;5.88;;;19.70;99.90;;;;;;6309767;22;20416;-80
2023/06/15 09:02:46;;;;;;;10.73;5.10;;;19.70;99.90;;;;;;6335870;22;20424;-81
2023/06/15 09:05:12;;;;;;;13.93;5.85;;;19.70;99.90;;;;;;6309589;22;19999;-81
2023/06/15 09:07:38;;;;;;;10.32;5.65;;;19.70;99.90;;;;;;6310973;22;20022;-81
2023/06/15 09:10:18;;;;;;;20.50;5.97;;;19.70;99.90;;;;;;6311526;22;19995;-81
2023/06/15 09:12:55;;;;;;;13.30;6.28;;;19.70;99.90;;;;;;6311133;22;20006;-81
2023/06/15 09:15:23;;;;;;;16.02;5.82;;;19.70;99.90;;;;;;6311080;22;20345;-81
2023/06/15 09:17:53;;;;;;;12.88;6.57;;;19.80;99.90;;;;;;6311084;22;20006;-80
2023/06/15 09:20:20;;;;;;;19.23;7.63;;;19.80;99.90;;;;;;6309670;22;20498;-81
2023/06/15 09:22:47;;;;;;;17.83;6.25;;;19.80;99.90;;;;;;6309911;22;20084;-80
2023/06/15 09:25:16;;;;;;;16.02;7.20;;;19.80;99.90;;;;;;6311014;22;19996;-80
2023/06/15 09:27:51;;;;;;;22.02;6.25;;;19.70;99.90;;;;;;6311315;22;19995;-80
2023/06/15 09:30:18;;;;;;;19.73;7.25;;;19.70;99.90;;;;;;6311213;22;19998;-80
2023/06/15 09:32:43;;;;;;;16.20;7.07;;;19.60;99.90;;;;;;6309360;22;19999;-80
2023/06/15 09:35:09;;;;;;;19.15;6.90;;;19.50;99.90;;;;;;6308661;22;20036;-80
2023/06/15 09:37:37;;;;;;;19.20;7.20;;;19.40;99.90;;;;;;6309734;22;20002;-80
2023/06/15 09:40:10;;;;;;;16.10;7.32;;;19.30;99.90;;;;;;6307641;22;20011;-80
2023/06/15 09:42:40;;;;;;;14.82;7.65;;;19.20;99.90;;;;;;6309703;22;20000;-80
2023/06/15 09:45:06;;;;;;;20.83;8.15;;;19.10;99.90;;;;;;6309587;22;20034;-80
2023/06/15 09:47:32;;;;;;;14.93;7.57;;;19.10;99.90;;;;;;6333620;22;20057;-80
2023/06/15 09:49:59;;;;;;;15.30;8.40;;;19.00;99.90;;;;;;6309534;22;20056;-79
2023/06/15 09:52:25;;;;;;;14.93;7.32;;;19.00;99.90;;;;;;6308106;22;20407;-79
2023/06/15 09:54:53;;;;;;;16.20;8.52;;;19.00;99.90;;;;;;6306107;22;19995;-80
2023/06/15 09:57:19;;;;;;;14.32;8.05;;;19.00;99.90;;;;;;6307466;22;20019;-80
2023/06/15 09:59:48;;;;;;;16.25;8.43;;;19.00;99.90;;;;;;6309031;22;19991;-80
2023/06/15 10:02:19;;;;;;;17.42;8.88;;;19.10;99.90;;;;;;6308027;22;20309;-80
2023/06/15 10:04:48;;;;;;;14.18;8.75;;;19.20;99.90;;;;;;6307973;22;19999;-80
2023/06/15 10:07:19;;;;;;;21.25;8.32;;;19.30;99.90;;;;;;6307517;22;19999;-80
2023/06/15 10:09:46;;;;;;;;;;;19.40;99.90;;;;;;6307782;22;19999;-80
2023/06/15 10:12:17;;;;;;;16.75;8.32;;;19.40;99.90;;;;;;6308726;22;19935;-80
2023/06/15 10:14:52;;;;;;;14.65;8.48;;;19.50;99.90;;;;;;6307531;22;20387;-80
2023/06/15 10:17:23;;;;;;;12.57;8.05;;;19.50;99.90;;;;;;6307849;22;19996;-80
2023/06/15 10:19:52;;;;;;;14.40;8.03;;;19.50;99.90;;;;;;6307790;22;20003;-81
2023/06/15 10:22:21;;;;;;;20.27;8.13;;;19.50;99.90;;;;;;6307236;22;20298;-80
2023/06/15 10:24:47;;;;;;;27.88;9.25;;;19.50;99.90;;;;;;6308665;22;20023;-80
2023/06/15 10:27:15;;;;;;;16.25;8.65;;;19.50;99.90;;;;;;6309241;22;19992;-80
2023/06/15 10:30:07;;;;;;;15.55;8.13;;;19.60;99.90;;;;;;6307231;22;19996;-81
2023/06/15 10:32:36;;;;;;;14.93;9.20;;;19.70;99.90;;;;;;6309267;22;20004;-81
2023/06/15 10:35:21;;;;;;;16.90;9.32;;;19.80;99.90;;;;;;6308880;22;20019;-81
2023/06/15 10:38:17;;;;;;;16.05;9.70;;;19.80;99.90;;;;;;6308870;22;20341;-81
2023/06/15 10:40:50;;;;;;;16.75;9.10;;;20.00;99.90;;;;;;6308943;22;20003;-81
2023/06/15 10:43:20;;;;;;;15.90;9.52;;;20.00;99.90;;;;;;6307155;22;20006;-82
2023/06/15 10:45:46;;;;;;;17.48;9.25;;;20.10;99.90;;;;;;6307321;22;20456;-81
2023/06/15 10:48:26;;;;;;;14.52;9.05;;;;;;;;;;6306873;22;20003;-81
2023/06/15 10:51:01;;;;;;;13.07;7.82;;;20.40;99.90;;;;;;6306944;22;20066;-82
2023/06/15 10:53:28;;;;;;;14.45;8.75;;;20.40;99.90;;;;;;6307285;22;20087;-83
2023/06/15 10:55:57;;;;;;;21.33;8.25;;;20.20;99.90;;;;;;6306574;22;20023;-82
2023/06/15 10:58:24;;;;;;;15.60;8.13;;;;;;;;;;6307239;22;20000;-82
2023/06/15 11:01:09;;;;;;;13.13;8.48;;;20.30;99.90;;;;;;6306693;22;20084;-83
2023/06/15 11:03:35;;;;;;;14.25;8.10;;;20.30;99.90;;;;;;6308521;22;20003;-82
2023/06/15 11:06:17;;;;;;;15.40;8.13;;;20.40;99.90;;;;;;6308813;22;19995;-83
2023/06/15 11:08:52;;;;;;;14.65;7.28;;;20.40;99.90;;;;;;6307298;22;19999;-82
2023/06/15 11:11:20;;;;;;;13.27;7.45;;;20.40;99.90;;;;;;6306999;22;20010;-82
2023/06/15 11:14:08;;;;;;;21.13;14.05;;;20.40;99.90;;;;;;6308805;22;19995;-82
2023/06/15 11:16:37;;;;;;;42.25;28.10;;;20.40;99.90;;;;;;6308463;22;20082;-82
2023/06/15 11:19:13;;;;;;;21.73;14.55;;;20.40;99.90;;;;;;6333232;22;20057;-82
2023/06/15 11:21:41;;;;;;;24.20;14.77;;;20.40;99.90;;;;;;6333091;22;20030;-82
2023/06/15 11:24:13;;;;;;;22.70;13.65;;;20.40;99.90;;;;;;6308301;22;20078;-82
2023/06/15 11:26:40;;;;;;;17.48;10.75;;;20.50;99.90;;;;;;6333761;22;20004;-82
2023/06/15 11:29:08;;;;;;;15.90;9.85;;;20.40;99.90;;;;;;6333215;22;19995;-82
2023/06/15 11:31:34;;;;;;;13.73;7.18;;;20.40;99.90;;;;;;6306715;22;20014;-83
2023/06/15 11:34:00;;;;;;;10.48;6.78;;;20.50;99.90;;;;;;6307018;22;19996;-82
2023/06/15 11:36:26;;;;;;;11.93;7.43;;;20.40;99.90;;;;;;6308626;22;19999;-84
2023/06/15 11:38:53;;;;;;;12.55;7.32;;;20.40;99.90;;;;;;6307959;22;20030;-84
2023/06/15 11:41:22;;;;;;;13.68;6.95;;;20.40;99.90;;;;;;6306990;22;20006;-82
2023/06/15 11:43:50;;;;;;;12.50;7.05;;;20.40;99.90;;;;;;6306850;22;20007;-83
2023/06/15 11:46:17;;;;;;;9.65;6.00;;;20.40;99.90;;;;;;6306525;22;20023;-84
2023/06/15 11:48:44;;;;;;;14.25;6.65;;;20.40;99.90;;;;;;6306871;22;20425;-84
2023/06/15 11:51:12;;;;;;;13.90;6.43;;;20.40;99.90;;;;;;6306846;22;20013;-83
2023/06/15 11:53:39;;;;;;;11.25;5.78;;;20.50;99.90;;;;;;6308238;22;20071;-83
2023/06/15 11:56:13;;;;;;;11.98;5.55;;;20.40;99.90;;;;;;6298634;22;20039;-81
2023/06/15 11:58:47;;;;;;;10.48;5.32;;;20.40;99.90;;;;;;6274995;22;20011;-84
2023/06/15 12:01:15;;;;;;;8.80;5.00;;;20.40;99.90;;;;;;6250213;22;20047;-83
2023/06/15 12:03:49;;;;;;;8.20;4.57;;;20.30;99.90;;;;;;6250219;22;20062;-84
2023/06/15 12:06:19;;;;;;;10.25;5.07;;;20.30;99.90;;;;;;6276805;22;20031;-83
2023/06/15 12:08:52;;;;;;;9.00;5.00;;;20.20;99.90;;;;;;6277178;22;19999;-84
2023/06/15 12:11:25;;;;;;;;;;;20.20;99.90;;;;;;6277325;22;20011;-84
2023/06/15 12:13:51;;;;;;;14.75;5.53;;;20.20;99.90;;;;;;6249305;22;19899;-84
2023/06/15 12:16:18;;;;;;;11.43;6.05;;;20.10;99.90;;;;;;6249910;22;20023;-85
2023/06/15 12:18:43;;;;;;;9.07;5.72;;;20.10;99.90;;;;;;6249239;22;20004;-84
2023/06/15 12:21:10;;;;;;;12.88;5.57;;;20.20;99.90;;;;;;6249401;22;20492;-84
2023/06/15 12:23:36;;;;;;;9.95;5.78;;;20.10;99.90;;;;;;6249602;22;20077;-85
2023/06/15 12:26:03;;;;;;;13.70;5.97;;;20.10;99.90;;;;;;6276680;22;20293;-84
2023/06/15 12:28:32;;;;;;;9.38;5.95;;;20.10;99.90;;;;;;6249600;22;20014;-85
2023/06/15 12:31:04;;;;;;;12.05;5.40;;;20.10;99.90;;;;;;6249581;22;20085;-83
2023/06/15 12:33:38;;;;;;;8.95;5.93;;;20.10;99.90;;;;;;6249767;22;20004;-83
2023/06/15 12:36:10;;;;;;;9.98;5.55;;;20.00;99.90;;;;;;6249525;22;20007;-84
2023/06/15 12:38:36;;;;;;;13.55;5.80;;;20.00;99.90;;;;;;6274896;22;20332;-83
2023/06/15 12:41:03;;;;;;;14.75;6.72;;;20.00;99.90;;;;;;6248741;22;20329;-84